Time;durP1;ratioP1;P1;durP2;ratioP2;P2;SDS_P1;SDS_P2;PMS_P1;PMS_P2;Temp;Humidity;BMP_temperature;BMP_pressure;BME280_temperature;BME280_humidity;BME280_pressure;Samples;Min_cycle;Max_cycle;Signal;HPM_P1;HPM_P2
2021/03/21 00:02:10;;;;;;;28.67;23.63;;;7.50;90.30;;;;;;5096240;28;20463;-71
2021/03/21 00:04:37;;;;;;;28.83;23.63;;;7.40;90.40;;;;;;5096289;28;20443;-71
2021/03/21 00:07:03;;;;;;;31.03;25.00;;;7.50;90.40;;;;;;5096059;28;20488;-71
2021/03/21 00:09:29;;;;;;;31.93;24.77;;;7.50;90.30;;;;;;5096457;28;20439;-71
2021/03/21 00:11:56;;;;;;;28.30;22.73;;;7.40;90.50;;;;;;5095714;28;20836;-71
2021/03/21 00:14:23;;;;;;;29.80;23.13;;;7.40;90.70;;;;;;5096088;28;20440;-71
2021/03/21 00:16:49;;;;;;;31.93;22.33;;;7.40;90.90;;;;;;5095773;28;20926;-71
2021/03/21 00:19:15;;;;;;;26.43;20.37;;;7.40;91.20;;;;;;5096069;28;20424;-71
2021/03/21 00:21:41;;;;;;;25.20;20.53;;;7.30;91.30;;;;;;5095919;28;20460;-71
2021/03/21 00:24:08;;;;;;;26.60;21.27;;;7.30;91.40;;;;;;5095971;28;20424;-71
2021/03/21 00:26:35;;;;;;;26.87;21.20;;;7.20;91.50;;;;;;5095490;28;20500;-71
2021/03/21 00:29:04;;;;;;;25.87;20.33;;;7.20;91.70;;;;;;5095534;28;20918;-71
2021/03/21 00:31:30;;;;;;;23.80;19.17;;;7.20;91.80;;;;;;5095432;28;20985;-71
2021/03/21 00:33:56;;;;;;;26.57;19.83;;;7.20;91.90;;;;;;5095684;28;20435;-71
2021/03/21 00:36:23;;;;;;;24.20;19.77;;;7.10;92.40;;;;;;5095722;28;20489;-71
2021/03/21 00:38:52;;;;;;;24.97;19.77;;;7.10;92.70;;;;;;5095612;28;20451;-71
2021/03/21 00:41:24;;;;;;;27.80;20.53;;;7.10;93.10;;;;;;5095434;28;21014;-71
2021/03/21 00:43:51;;;;;;;23.57;19.40;;;7.00;93.30;;;;;;5095297;28;20827;-71
2021/03/21 00:46:18;;;;;;;25.57;19.93;;;7.00;93.50;;;;;;5095124;28;20494;-71
2021/03/21 00:48:46;;;;;;;27.30;20.20;;;7.10;93.60;;;;;;5095428;28;20451;-71
2021/03/21 00:51:15;;;;;;;23.30;19.17;;;7.00;93.60;;;;;;5095031;28;20468;-71
2021/03/21 00:53:42;;;;;;;22.33;18.83;;;7.00;94.00;;;;;;5095376;28;20446;-71
2021/03/21 00:56:26;;;;;;;29.03;20.87;;;7.00;94.30;;;;;;5094543;28;20451;-71
2021/03/21 00:58:54;;;;;;;22.13;18.07;;;6.90;94.70;;;;;;5095334;28;20424;-71
2021/03/21 01:01:21;;;;;;;27.07;20.27;;;6.90;94.90;;;;;;5095179;28;20871;-71
2021/03/21 01:03:48;;;;;;;24.50;20.30;;;6.90;95.10;;;;;;5095140;28;20497;-71
2021/03/21 01:06:14;;;;;;;28.00;20.47;;;6.90;95.30;;;;;;5094589;28;20946;-71
2021/03/21 01:08:40;;;;;;;27.53;21.20;;;6.80;95.50;;;;;;5095027;28;20444;-71
2021/03/21 01:11:11;;;;;;;25.93;19.87;;;6.80;95.60;;;;;;5094992;28;20460;-71
2021/03/21 01:13:38;;;;;;;28.07;21.40;;;6.90;95.80;;;;;;5095262;28;20825;-70
2021/03/21 01:16:06;;;;;;;23.97;19.90;;;7.00;96.20;;;;;;5094945;28;20435;-70
2021/03/21 01:18:34;;;;;;;30.83;21.27;;;7.10;95.70;;;;;;5094886;28;20811;-70
2021/03/21 01:21:02;;;;;;;25.23;20.20;;;7.10;95.50;;;;;;5094783;28;20464;-71
2021/03/21 01:23:28;;;;;;;27.23;21.27;;;7.10;95.40;;;;;;5094759;28;20443;-71
2021/03/21 01:25:55;;;;;;;25.30;19.87;;;7.00;95.30;;;;;;5094709;28;20444;-71
2021/03/21 01:28:24;;;;;;;30.20;22.03;;;7.10;95.60;;;;;;5094619;28;20476;-71
2021/03/21 01:30:52;;;;;;;28.17;20.77;;;7.10;95.50;;;;;;5094604;28;20499;-71
2021/03/21 01:33:19;;;;;;;29.83;21.40;;;7.10;95.50;;;;;;5094597;28;20448;-71
2021/03/21 01:35:48;;;;;;;29.43;20.90;;;7.00;95.60;;;;;;5094516;28;20806;-71
2021/03/21 01:38:15;;;;;;;28.30;21.20;;;7.00;95.90;;;;;;5095288;28;20440;-71
2021/03/21 01:40:42;;;;;;;28.90;20.30;;;7.00;96.00;;;;;;5094401;28;20467;-71
2021/03/21 01:43:12;;;;;;;27.80;20.40;;;6.90;95.80;;;;;;5094439;28;20470;-71
2021/03/21 01:45:42;;;;;;;27.07;19.90;;;7.00;95.80;;;;;;5094362;28;20432;-71
2021/03/21 01:48:17;;;;;;;26.40;19.80;;;7.00;95.70;;;;;;5094108;28;20973;-71
2021/03/21 01:50:49;;;;;;;26.80;19.60;;;7.00;95.60;;;;;;5093928;28;20996;-71
2021/03/21 01:53:18;;;;;;;30.43;22.87;;;7.00;95.60;;;;;;5094294;28;20431;-71
2021/03/21 01:55:45;;;;;;;31.33;21.93;;;7.00;95.80;;;;;;5094204;28;20444;-71
2021/03/21 01:58:12;;;;;;;28.53;21.13;;;7.00;96.00;;;;;;5094148;28;20446;-71
2021/03/21 02:00:39;;;;;;;26.17;20.30;;;7.00;96.10;;;;;;5094077;28;20470;-71
2021/03/21 02:03:06;;;;;;;27.70;21.67;;;6.90;96.40;;;;;;5094066;28;20450;-71
2021/03/21 02:05:33;;;;;;;30.17;21.63;;;6.90;96.60;;;;;;5093618;28;20821;-71
2021/03/21 02:08:25;;;;;;;30.17;20.37;;;6.80;96.40;;;;;;5093868;28;20479;-71
2021/03/21 02:10:58;;;;;;;25.50;19.57;;;6.70;96.60;;;;;;5093905;28;20468;-71
2021/03/21 02:13:27;;;;;;;27.73;20.10;;;6.80;96.80;;;;;;5093647;28;20428;-71
2021/03/21 02:16:01;;;;;;;24.87;18.73;;;6.80;96.80;;;;;;5093834;28;20444;-71
2021/03/21 02:18:34;;;;;;;25.37;19.80;;;6.70;97.00;;;;;;5093602;28;20894;-71
2021/03/21 02:21:24;;;;;;;22.27;16.00;;;6.60;97.10;;;;;;5093687;28;20985;-71
2021/03/21 02:24:23;;;;;;;22.83;17.17;;;6.70;97.10;;;;;;5093762;28;20435;-71
2021/03/21 02:27:01;;;;;;;21.60;16.20;;;6.70;97.10;;;;;;5093313;28;20482;-71
2021/03/21 02:29:53;;;;;;;22.50;16.33;;;6.60;97.30;;;;;;5093406;28;20819;-71
2021/03/21 02:32:24;;;;;;;23.07;16.27;;;6.50;97.80;;;;;;5090255;28;20479;-71
2021/03/21 02:35:04;;;;;;;20.30;15.30;;;6.40;97.70;;;;;;5093640;28;20427;-71
2021/03/21 02:37:37;;;;;;;21.10;15.67;;;6.50;97.90;;;;;;5093637;28;20428;-71
2021/03/21 02:40:12;;;;;;;21.70;16.17;;;6.50;97.80;;;;;;5093308;28;20465;-71
2021/03/21 02:42:42;;;;;;;20.57;15.80;;;6.50;97.70;;;;;;5093654;28;20428;-71
2021/03/21 02:45:14;;;;;;;27.10;17.23;;;6.60;97.70;;;;;;5093549;28;20432;-71
2021/03/21 02:47:42;;;;;;;19.20;14.30;;;6.60;97.70;;;;;;5093695;28;20475;-71
2021/03/21 02:50:15;;;;;;;24.20;16.20;;;6.60;97.60;;;;;;5093375;28;20447;-71
2021/03/21 02:52:46;;;;;;;18.77;14.50;;;6.60;97.60;;;;;;5093496;28;20795;-71
2021/03/21 02:55:19;;;;;;;24.07;15.43;;;6.60;97.70;;;;;;5093484;28;20489;-71
2021/03/21 02:57:50;;;;;;;21.73;16.57;;;6.60;97.90;;;;;;5093450;28;20431;-71
2021/03/21 03:00:24;;;;;;;23.97;17.87;;;6.60;97.80;;;;;;5093332;28;20431;-72
2021/03/21 03:02:54;;;;;;;22.80;17.43;;;6.60;97.80;;;;;;5093424;28;20482;-71
2021/03/21 03:05:25;;;;;;;23.53;17.83;;;6.60;97.70;;;;;;5093205;28;20448;-71
2021/03/21 03:07:55;;;;;;;22.70;17.20;;;6.50;98.00;;;;;;5094053;28;20475;-71
2021/03/21 03:10:28;;;;;;;23.67;16.60;;;6.50;98.00;;;;;;5094079;28;20436;-72
2021/03/21 03:13:04;;;;;;;22.77;16.70;;;6.50;97.90;;;;;;5093581;28;20450;-72
2021/03/21 03:15:32;;;;;;;25.83;18.40;;;6.40;98.00;;;;;;5093307;28;20432;-71
2021/03/21 03:18:05;;;;;;;24.80;17.20;;;6.50;98.10;;;;;;5092958;28;20933;-71
2021/03/21 03:20:37;;;;;;;24.33;17.70;;;6.40;98.00;;;;;;5096301;28;20463;-71
2021/03/21 03:23:11;;;;;;;27.47;18.17;;;6.40;98.20;;;;;;5097206;28;20530;-71
2021/03/21 03:25:44;;;;;;;27.77;18.63;;;6.40;98.20;;;;;;5097130;28;20431;-71
2021/03/21 03:28:14;;;;;;;25.33;18.50;;;6.40;98.30;;;;;;5097247;28;20802;-71
2021/03/21 03:30:54;;;;;;;23.80;18.33;;;6.50;98.10;;;;;;5097316;28;20459;-71
2021/03/21 03:33:21;;;;;;;24.17;17.67;;;6.50;98.20;;;;;;5097054;28;20438;-71
2021/03/21 03:35:47;;;;;;;26.43;18.40;;;6.40;98.20;;;;;;5096589;28;20961;-71
2021/03/21 03:38:15;;;;;;;26.47;18.33;;;6.40;98.50;;;;;;5096469;28;20824;-71
2021/03/21 03:40:43;;;;;;;25.93;18.70;;;6.40;98.50;;;;;;5096441;28;20512;-71
2021/03/21 03:43:22;;;;;;;24.60;17.93;;;6.40;98.50;;;;;;5096848;28;20443;-71
2021/03/21 03:46:00;;;;;;;27.20;17.93;;;6.40;98.50;;;;;;5096704;28;20432;-71
2021/03/21 03:48:44;;;;;;;28.87;19.57;;;6.40;98.50;;;;;;5096593;28;20463;-71
2021/03/21 03:51:16;;;;;;;27.67;18.50;;;6.40;98.60;;;;;;5096569;28;20464;-71
2021/03/21 03:53:57;;;;;;;27.87;18.03;;;6.40;98.60;;;;;;5096565;28;20948;-71
2021/03/21 03:56:28;;;;;;;26.30;19.27;;;6.40;98.60;;;;;;5096496;28;20428;-71
2021/03/21 03:59:08;;;;;;;28.40;19.60;;;6.40;99.40;;;;;;5096141;28;20906;-71
2021/03/21 04:01:42;;;;;;;27.83;19.10;;;6.40;98.90;;;;;;5096388;28;20493;-71
2021/03/21 04:04:17;;;;;;;30.17;19.97;;;6.40;99.00;;;;;;5096934;28;20431;-71
2021/03/21 04:06:51;;;;;;;30.60;19.60;;;6.40;99.10;;;;;;5095901;28;20521;-71
2021/03/21 04:09:22;;;;;;;30.30;19.83;;;6.30;99.20;;;;;;5096252;28;20429;-71
2021/03/21 04:11:57;;;;;;;30.63;20.40;;;6.30;99.40;;;;;;5096180;28;20464;-71
2021/03/21 04:14:28;;;;;;;32.10;20.90;;;6.40;99.30;;;;;;5096148;28;20477;-71
2021/03/21 04:17:03;;;;;;;26.93;18.87;;;6.30;99.30;;;;;;5095787;28;20424;-71
2021/03/21 04:19:36;;;;;;;28.40;19.33;;;6.40;99.50;;;;;;5096109;28;20431;-71
2021/03/21 04:22:06;;;;;;;26.70;19.20;;;6.30;99.40;;;;;;5095984;28;20464;-71
2021/03/21 04:24:35;;;;;;;31.70;19.60;;;6.40;99.50;;;;;;5095981;28;20428;-71
2021/03/21 04:27:05;;;;;;;28.63;19.00;;;6.40;99.40;;;;;;5095822;28;20483;-71
2021/03/21 04:29:37;;;;;;;30.80;19.63;;;6.40;99.40;;;;;;5095847;28;20440;-71
2021/03/21 04:32:09;;;;;;;28.50;18.77;;;6.40;99.40;;;;;;5094309;28;21009;-71
2021/03/21 04:34:38;;;;;;;28.07;18.63;;;6.40;99.80;;;;;;5095836;28;20428;-71
2021/03/21 04:37:06;;;;;;;26.20;17.70;;;6.50;99.60;;;;;;5095758;28;20490;-71
2021/03/21 04:39:36;;;;;;;31.33;18.23;;;6.40;99.60;;;;;;5095668;28;20450;-71
2021/03/21 04:42:06;;;;;;;29.80;19.57;;;6.40;99.80;;;;;;5095604;28;20463;-71
2021/03/21 04:44:36;;;;;;;26.83;18.57;;;6.40;99.90;;;;;;5095613;28;20432;-71
2021/03/21 04:47:08;;;;;;;28.67;18.10;;;6.40;99.90;;;;;;5095406;28;20475;-71
2021/03/21 04:49:35;;;;;;;35.23;20.10;;;6.40;99.90;;;;;;5095467;28;20933;-71
2021/03/21 04:52:08;;;;;;;29.50;19.00;;;6.40;99.90;;;;;;5095322;28;20520;-71
2021/03/21 04:54:38;;;;;;;29.90;18.90;;;6.40;99.90;;;;;;5095438;28;20424;-71
2021/03/21 04:57:16;;;;;;;31.83;20.43;;;6.40;99.90;;;;;;5095042;28;20420;-71
2021/03/21 04:59:44;;;;;;;34.93;21.83;;;6.40;99.90;;;;;;5095323;28;20428;-71
2021/03/21 05:02:15;;;;;;;32.53;20.00;;;6.40;99.90;;;;;;5095122;28;20460;-71
2021/03/21 05:04:45;;;;;;;38.17;22.57;;;6.40;99.90;;;;;;5095268;28;20767;-71
2021/03/21 05:07:25;;;;;;;35.13;21.80;;;6.40;99.90;;;;;;5094690;28;20488;-71
2021/03/21 05:09:56;;;;;;;33.67;21.50;;;6.50;99.90;;;;;;5095119;28;20473;-71
2021/03/21 05:12:32;;;;;;;36.47;21.03;;;6.40;99.90;;;;;;5094984;28;20490;-71
2021/03/21 05:15:05;;;;;;;39.90;23.70;;;6.40;99.90;;;;;;5095023;28;20477;-71
2021/03/21 05:17:43;;;;;;;34.40;22.00;;;6.40;99.90;;;;;;5094974;28;20481;-71
2021/03/21 05:20:17;;;;;;;36.47;22.20;;;6.50;99.90;;;;;;5094848;28;20428;-71
2021/03/21 05:22:51;;;;;;;39.83;22.90;;;6.40;99.90;;;;;;5094876;28;20428;-70
2021/03/21 05:25:23;;;;;;;40.10;22.60;;;6.40;99.90;;;;;;5094520;28;20906;-71
2021/03/21 05:27:55;;;;;;;39.90;23.00;;;6.40;99.90;;;;;;5094680;28;20513;-71
2021/03/21 05:30:25;;;;;;;40.63;23.67;;;6.40;99.90;;;;;;5094581;28;20914;-72
2021/03/21 05:32:53;;;;;;;42.20;24.00;;;6.40;99.90;;;;;;5094691;28;20438;-71
2021/03/21 05:35:22;;;;;;;41.70;25.90;;;6.40;99.90;;;;;;5094234;28;20809;-71
2021/03/21 05:37:58;;;;;;;44.57;24.17;;;6.40;99.90;;;;;;5094188;28;20858;-71
2021/03/21 05:41:00;;;;;;;44.50;24.03;;;6.40;99.90;;;;;;5094479;28;20428;-71
2021/03/21 05:44:14;;;;;;;39.90;24.10;;;6.60;99.90;;;;;;5094164;28;20443;-71
2021/03/21 05:47:18;;;;;;;40.70;23.60;;;6.50;99.90;;;;;;5094307;28;20432;-71
2021/03/21 05:50:09;;;;;;;49.70;23.30;;;6.60;99.90;;;;;;5094399;28;20428;-71
2021/03/21 05:53:08;;;;;;;45.97;25.43;;;6.50;99.90;;;;;;5094338;28;20432;-71
2021/03/21 05:55:59;;;;;;;42.93;24.33;;;6.50;99.90;;;;;;5094324;28;20481;-71
2021/03/21 05:59:00;;;;;;;45.43;25.60;;;6.60;99.90;;;;;;5094353;28;20467;-71
2021/03/21 06:02:03;;;;;;;44.03;25.30;;;6.60;99.90;;;;;;5094075;28;20533;-71
2021/03/21 06:05:03;;;;;;;46.67;25.33;;;6.60;99.90;;;;;;5093755;28;20435;-71
2021/03/21 06:07:57;;;;;;;45.23;24.40;;;6.60;99.90;;;;;;5093953;28;20471;-71
2021/03/21 06:10:59;;;;;;;43.97;25.47;;;6.70;99.90;;;;;;5094018;28;20429;-71
2021/03/21 06:13:39;;;;;;;47.63;24.43;;;6.70;99.90;;;;;;5094273;28;20451;-71
2021/03/21 06:16:43;;;;;;;48.67;25.57;;;6.70;99.90;;;;;;5094407;28;20443;-71
2021/03/21 06:19:48;;;;;;;45.40;25.20;;;6.70;99.90;;;;;;5031425;28;20418;-71
2021/03/21 06:22:36;;;;;;;40.50;22.70;;;6.80;99.90;;;;;;5063647;28;20985;-71
2021/03/21 06:25:37;;;;;;;44.03;23.80;;;6.80;99.90;;;;;;5093826;28;20439;-71
2021/03/21 06:28:36;;;;;;;43.30;23.53;;;6.90;99.90;;;;;;5093707;28;20468;-71
2021/03/21 06:31:34;;;;;;;42.97;24.30;;;6.90;99.90;;;;;;5091061;28;20469;-71
2021/03/21 06:34:11;;;;;;;36.80;22.23;;;7.00;99.90;;;;;;5093756;28;20432;-71
2021/03/21 06:36:41;;;;;;;38.70;22.77;;;7.00;99.90;;;;;;5094287;28;20434;-71
2021/03/21 06:39:41;;;;;;;39.80;22.47;;;7.10;99.90;;;;;;5093640;28;20431;-71
2021/03/21 06:42:42;;;;;;;33.63;21.57;;;7.20;99.90;;;;;;5093553;28;20463;-72
2021/03/21 06:45:47;;;;;;;32.23;20.60;;;7.30;99.90;;;;;;5093568;28;20427;-71
2021/03/21 06:48:26;;;;;;;31.17;20.87;;;7.30;99.90;;;;;;5093492;28;20460;-71
2021/03/21 06:51:18;;;;;;;28.07;18.60;;;7.40;99.90;;;;;;5093395;28;20471;-72
2021/03/21 06:53:52;;;;;;;30.60;19.70;;;7.40;99.90;;;;;;5093687;28;20434;-72
2021/03/21 06:57:04;;;;;;;25.17;19.63;;;7.50;99.90;;;;;;5097780;28;20508;-72
2021/03/21 07:00:03;;;;;;;23.83;17.87;;;7.60;99.80;;;;;;5097589;28;20894;-72
2021/03/21 07:03:00;;;;;;;25.40;17.67;;;7.70;99.30;;;;;;5097266;28;20819;-72
2021/03/21 07:06:06;;;;;;;21.50;16.47;;;7.90;98.80;;;;;;5097216;28;20455;-72
2021/03/21 07:09:05;;;;;;;24.87;16.90;;;8.00;98.50;;;;;;5079490;28;20499;-71
2021/03/21 07:12:10;;;;;;;27.03;18.37;;;8.10;98.30;;;;;;5097342;28;20463;-71
2021/03/21 07:15:22;;;;;;;22.43;16.27;;;8.20;97.90;;;;;;5097330;28;20446;-71
2021/03/21 07:18:43;;;;;;;22.73;17.33;;;8.40;97.50;;;;;;5034714;28;20496;-72
2021/03/21 07:21:34;;;;;;;21.10;16.37;;;8.40;96.80;;;;;;5097165;28;20842;-73
2021/03/21 07:24:31;;;;;;;22.67;16.23;;;8.50;96.60;;;;;;5097160;28;20448;-73
2021/03/21 07:27:43;;;;;;;22.30;17.20;;;8.50;96.50;;;;;;5097091;28;20470;-73
2021/03/21 07:30:12;;;;;;;21.27;16.30;;;8.60;95.90;;;;;;5096574;28;20427;-73
2021/03/21 07:33:02;;;;;;;17.13;14.30;;;8.50;96.00;;;;;;5096808;28;20450;-72
2021/03/21 07:35:46;;;;;;;18.37;13.80;;;8.50;95.60;;;;;;5096803;28;20424;-73
2021/03/21 07:38:22;;;;;;;18.70;14.87;;;8.60;95.60;;;;;;5096755;28;20428;-73
2021/03/21 07:40:51;;;;;;;19.20;13.07;;;8.60;95.30;;;;;;5096761;28;20463;-72
2021/03/21 07:43:42;;;;;;;21.53;13.80;;;8.60;95.20;;;;;;5096600;28;20957;-73
2021/03/21 07:46:45;;;;;;;16.40;12.80;;;8.50;95.10;;;;;;5094072;28;20459;-73
2021/03/21 07:49:39;;;;;;;17.40;14.00;;;8.60;95.00;;;;;;5096399;28;20952;-72
2021/03/21 07:52:39;;;;;;;18.03;11.90;;;8.60;95.00;;;;;;5096597;28;20476;-73
2021/03/21 07:55:12;;;;;;;16.30;11.90;;;8.60;94.50;;;;;;5084954;28;20469;-73
2021/03/21 07:57:57;;;;;;;15.10;11.17;;;8.60;94.70;;;;;;5096576;28;20423;-72
2021/03/21 08:00:24;;;;;;;16.43;12.40;;;8.70;94.50;;;;;;5096428;28;20423;-73
2021/03/21 08:02:56;;;;;;;14.57;11.17;;;8.80;94.10;;;;;;5096447;28;20428;-72
2021/03/21 08:05:27;;;;;;;11.60;10.00;;;8.90;93.70;;;;;;5096094;28;20451;-72
2021/03/21 08:07:55;;;;;;;13.23;10.10;;;9.00;93.70;;;;;;5096304;28;20463;-72
2021/03/21 08:10:26;;;;;;;14.03;9.80;;;9.00;92.90;;;;;;5096249;28;20448;-72
2021/03/21 08:12:58;;;;;;;14.50;9.60;;;9.00;92.70;;;;;;5096308;28;20432;-73
2021/03/21 08:15:28;;;;;;;12.50;9.50;;;9.00;92.70;;;;;;5096240;28;20424;-73
2021/03/21 08:18:00;;;;;;;10.57;7.40;;;9.00;92.80;;;;;;5096199;28;20429;-72
2021/03/21 08:20:29;;;;;;;10.63;5.70;;;8.80;93.00;;;;;;5096062;28;20424;-72
2021/03/21 08:23:10;;;;;;;8.97;5.83;;;8.80;92.30;;;;;;5096083;28;20439;-72
2021/03/21 08:25:37;;;;;;;12.77;5.70;;;8.80;92.30;;;;;;5095756;28;20896;-72
2021/03/21 08:28:03;;;;;;;6.73;5.17;;;8.80;92.20;;;;;;5095979;28;20532;-72
2021/03/21 08:30:47;;;;;;;7.37;5.00;;;9.00;92.20;;;;;;5095913;28;20796;-72
2021/03/21 08:33:25;;;;;;;5.67;4.73;;;9.20;92.20;;;;;;5095873;28;20424;-71
2021/03/21 08:36:17;;;;;;;6.47;3.90;;;9.30;91.50;;;;;;5095801;28;20431;-71
2021/03/21 08:39:00;;;;;;;7.03;3.80;;;9.30;90.80;;;;;;5095741;28;20425;-71
2021/03/21 08:41:29;;;;;;;6.90;3.80;;;9.20;90.90;;;;;;5095411;28;20974;-71
2021/03/21 08:44:00;;;;;;;4.33;3.57;;;9.20;91.10;;;;;;5095675;28;20847;-72
2021/03/21 08:46:28;;;;;;;5.37;3.93;;;9.10;91.40;;;;;;5095604;28;20476;-72
2021/03/21 08:49:05;;;;;;;5.23;3.40;;;9.10;91.80;;;;;;5095752;28;20502;-72
2021/03/21 08:51:39;;;;;;;7.37;3.27;;;9.20;92.10;;;;;;5095465;28;20470;-71
2021/03/21 08:54:14;;;;;;;6.50;2.90;;;9.30;91.50;;;;;;5095246;28;20975;-72
2021/03/21 08:56:55;;;;;;;3.90;2.80;;;9.40;90.90;;;;;;5095408;28;20521;-72
2021/03/21 08:59:35;;;;;;;4.73;3.17;;;9.50;91.00;;;;;;5095079;28;20486;-72
2021/03/21 09:02:06;;;;;;;3.43;2.10;;;9.80;91.00;;;;;;5095230;28;20587;-72
2021/03/21 09:04:34;;;;;;;6.37;3.27;;;9.90;90.20;;;;;;5095264;28;20432;-73
2021/03/21 09:07:20;;;;;;;4.60;2.20;;;10.10;88.80;;;;;;5094967;28;20456;-72
2021/03/21 09:09:47;;;;;;;5.13;2.13;;;10.30;88.70;;;;;;5095177;28;20443;-73
2021/03/21 09:12:29;;;;;;;5.07;1.90;;;10.40;86.30;;;;;;5095093;28;20467;-72
2021/03/21 09:15:19;;;;;;;4.30;2.07;;;10.30;85.70;;;;;;5095105;28;20795;-72
2021/03/21 09:18:02;;;;;;;2.97;1.57;;;10.30;84.90;;;;;;5094387;28;20477;-72
2021/03/21 09:20:28;;;;;;;2.60;1.60;;;10.20;84.90;;;;;;5094928;28;20509;-72
2021/03/21 09:22:55;;;;;;;4.73;2.67;;;10.20;84.90;;;;;;5094951;28;20439;-72
2021/03/21 09:25:25;;;;;;;4.90;1.67;;;10.00;85.40;;;;;;5094516;28;20453;-72
2021/03/21 09:27:53;;;;;;;5.10;2.00;;;9.90;87.60;;;;;;5094706;28;20474;-72
2021/03/21 09:30:23;;;;;;;1.50;1.30;;;9.80;88.30;;;;;;5094936;28;20443;-72
2021/03/21 09:32:55;;;;;;;3.50;2.00;;;9.70;88.90;;;;;;5094664;28;20450;-72
2021/03/21 09:35:34;;;;;;;4.90;2.20;;;9.70;89.60;;;;;;5094427;28;20905;-72
2021/03/21 09:38:06;;;;;;;6.37;2.70;;;9.60;90.10;;;;;;5094665;28;20443;-72
2021/03/21 09:40:35;;;;;;;3.97;1.70;;;9.40;90.00;;;;;;5094197;28;20798;-72
2021/03/21 09:43:03;;;;;;;8.07;2.13;;;9.20;88.20;;;;;;5094817;28;20439;-71
2021/03/21 09:45:30;;;;;;;8.53;2.67;;;9.20;89.60;;;;;;5094462;28;20431;-71
2021/03/21 09:47:59;;;;;;;8.60;1.40;;;9.30;89.10;;;;;;5094106;28;20827;-72
2021/03/21 09:50:34;;;;;;;6.70;1.40;;;;;;;;;;5094348;28;20442;-72
2021/03/21 09:53:16;;;;;;;7.47;1.70;;;9.40;86.40;;;;;;5094402;28;20427;-72
2021/03/21 09:55:48;;;;;;;7.43;2.53;;;9.40;87.30;;;;;;5094010;28;20428;-71
2021/03/21 09:58:25;;;;;;;4.53;1.60;;;9.60;86.40;;;;;;5094316;28;20424;-71
2021/03/21 10:00:56;;;;;;;3.37;1.10;;;9.70;85.70;;;;;;5094222;28;20513;-72
2021/03/21 10:03:27;;;;;;;6.93;1.57;;;9.80;85.40;;;;;;5094222;28;20432;-72
2021/03/21 10:06:03;;;;;;;8.50;1.63;;;9.90;85.40;;;;;;5093890;28;20455;-71
2021/03/21 10:08:58;;;;;;;9.17;1.70;;;10.00;82.10;;;;;;5094109;28;20512;-72
2021/03/21 10:11:31;;;;;;;7.33;2.07;;;9.90;79.70;;;;;;5093713;28;20964;-71
2021/03/21 10:13:59;;;;;;;8.73;2.07;;;9.90;81.40;;;;;;5093698;28;20432;-72
2021/03/21 10:16:33;;;;;;;8.10;3.13;;;10.00;80.50;;;;;;5093755;28;20924;-72
2021/03/21 10:19:04;;;;;;;12.97;3.23;;;10.00;75.80;;;;;;5093964;28;20568;-72
2021/03/21 10:21:38;;;;;;;7.90;2.53;;;9.80;76.50;;;;;;5093721;28;20509;-72
2021/03/21 10:24:34;;;;;;;6.70;2.63;;;9.80;77.90;;;;;;5094113;28;20477;-72
2021/03/21 10:27:35;;;;;;;10.93;2.80;;;9.70;78.80;;;;;;5093980;28;20428;-72
2021/03/21 10:30:20;;;;;;;9.10;1.97;;;9.80;76.90;;;;;;5092920;28;20418;-72
2021/03/21 10:32:49;;;;;;;11.60;2.40;;;9.60;75.50;;;;;;5093965;28;20420;-72
2021/03/21 10:35:48;;;;;;;12.00;2.67;;;9.50;75.90;;;;;;5093738;28;20446;-72
2021/03/21 10:38:46;;;;;;;16.00;2.90;;;9.70;77.10;;;;;;5093685;28;20442;-73
2021/03/21 10:41:45;;;;;;;7.63;2.40;;;9.90;76.70;;;;;;5093613;28;20474;-72
2021/03/21 10:44:12;;;;;;;8.93;2.70;;;10.10;73.60;;;;;;5093175;28;20447;-73
2021/03/21 10:46:46;;;;;;;15.07;2.97;;;10.20;72.30;;;;;;5093611;28;20500;-72
2021/03/21 10:49:12;;;;;;;23.87;4.93;;;10.40;71.00;;;;;;5093462;28;20825;-72
2021/03/21 10:52:08;;;;;;;16.93;3.23;;;10.30;70.00;;;;;;5093451;28;20505;-72
2021/03/21 10:54:35;;;;;;;15.33;2.40;;;10.30;69.90;;;;;;5093169;28;20434;-71
2021/03/21 10:57:25;;;;;;;9.90;3.20;;;10.10;70.40;;;;;;5093491;28;20432;-72
2021/03/21 11:00:14;;;;;;;13.30;3.30;;;10.00;72.40;;;;;;5093161;28;20916;-72
2021/03/21 11:02:44;;;;;;;14.87;2.70;;;10.00;73.10;;;;;;5089364;28;20455;-72
2021/03/21 11:05:25;;;;;;;13.43;2.97;;;10.00;73.30;;;;;;5093198;28;20431;-73
2021/03/21 11:08:05;;;;;;;13.03;2.77;;;10.20;73.70;;;;;;5093014;28;20460;-73
2021/03/21 11:10:33;;;;;;;13.27;2.70;;;10.20;73.90;;;;;;5093302;28;20433;-73
2021/03/21 11:13:00;;;;;;;18.20;3.80;;;10.30;72.90;;;;;;5093369;28;20428;-73
2021/03/21 11:15:35;;;;;;;13.87;3.33;;;10.40;73.10;;;;;;5093306;28;20554;-72
2021/03/21 11:18:07;;;;;;;12.67;3.20;;;10.40;72.40;;;;;;5093309;28;20439;-73
2021/03/21 11:20:36;;;;;;;12.03;2.90;;;10.40;71.20;;;;;;5092940;28;20902;-73
2021/03/21 11:23:08;;;;;;;18.13;4.17;;;10.40;71.30;;;;;;5093208;28;20444;-73
2021/03/21 11:25:38;;;;;;;17.17;4.17;;;10.40;68.40;;;;;;5093235;28;20431;-73
2021/03/21 11:28:07;;;;;;;15.07;4.10;;;10.50;68.80;;;;;;5092847;28;20833;-72
2021/03/21 11:30:33;;;;;;;17.90;3.83;;;10.50;69.60;;;;;;5094865;28;20435;-73
2021/03/21 11:33:16;;;;;;;15.83;3.80;;;10.70;71.10;;;;;;5093140;28;20478;-72
2021/03/21 11:35:42;;;;;;;22.20;3.50;;;10.90;68.90;;;;;;5093107;28;20427;-72
2021/03/21 11:38:29;;;;;;;17.60;3.80;;;10.90;69.10;;;;;;5092874;28;20427;-72
2021/03/21 11:40:59;;;;;;;11.30;3.57;;;11.00;67.30;;;;;;5094721;28;20470;-72
2021/03/21 11:43:28;;;;;;;17.43;4.00;;;11.00;66.80;;;;;;5096817;28;20438;-72
2021/03/21 11:45:55;;;;;;;20.30;4.03;;;11.00;66.30;;;;;;5096773;28;20431;-72
2021/03/21 11:48:31;;;;;;;20.30;4.67;;;11.10;67.50;;;;;;5096682;28;20464;-73
2021/03/21 11:50:58;;;;;;;14.30;4.20;;;11.20;65.20;;;;;;5096616;28;20463;-73
2021/03/21 11:53:28;;;;;;;12.80;3.43;;;11.40;65.10;;;;;;5096645;28;20439;-73
2021/03/21 11:56:00;;;;;;;14.80;3.13;;;11.40;64.90;;;;;;5096531;28;20424;-74
2021/03/21 11:58:34;;;;;;;19.00;4.30;;;11.50;64.30;;;;;;5096515;28;20424;-72
2021/03/21 12:01:04;;;;;;;19.57;5.63;;;11.50;61.50;;;;;;5096401;28;20475;-72
2021/03/21 12:03:44;;;;;;;15.33;3.60;;;11.50;61.20;;;;;;5096750;28;20448;-72
2021/03/21 12:06:25;;;;;;;17.87;4.50;;;11.60;61.30;;;;;;5096332;28;20906;-72
2021/03/21 12:08:52;;;;;;;21.07;4.37;;;11.70;61.20;;;;;;5096224;28;20470;-73
2021/03/21 12:11:34;;;;;;;16.03;5.00;;;11.80;61.90;;;;;;5096183;28;21014;-74
2021/03/21 12:14:36;;;;;;;12.13;3.97;;;11.90;61.10;;;;;;5096453;28;20451;-73
2021/03/21 12:17:35;;;;;;;18.03;4.33;;;11.90;60.70;;;;;;5090699;28;20451;-73
2021/03/21 12:20:40;;;;;;;21.43;5.40;;;12.10;59.60;;;;;;5093576;28;20455;-76
2021/03/21 12:23:21;;;;;;;22.73;5.40;;;12.10;59.70;;;;;;5096095;28;20439;-73
2021/03/21 12:26:12;;;;;;;15.10;3.97;;;12.20;58.60;;;;;;5096075;28;20510;-72
2021/03/21 12:28:49;;;;;;;20.07;4.50;;;12.30;57.70;;;;;;5095976;28;20823;-72
2021/03/21 12:31:23;;;;;;;18.90;4.07;;;12.40;58.30;;;;;;5096115;28;20466;-73
2021/03/21 12:33:49;;;;;;;21.30;4.50;;;12.40;58.20;;;;;;5095970;28;20428;-73
2021/03/21 12:36:22;;;;;;;12.20;3.60;;;12.40;58.20;;;;;;5095835;28;20856;-73
2021/03/21 12:38:52;;;;;;;17.20;4.30;;;12.50;58.20;;;;;;5095790;28;20489;-71
2021/03/21 12:41:30;;;;;;;21.03;6.27;;;12.60;57.60;;;;;;5095958;28;20468;-72
2021/03/21 12:44:21;;;;;;;20.80;5.03;;;12.50;56.70;;;;;;5095671;28;20431;-71
2021/03/21 12:46:50;;;;;;;19.13;4.73;;;12.50;56.70;;;;;;5095816;28;20527;-72
2021/03/21 12:49:44;;;;;;;11.13;3.40;;;12.60;57.10;;;;;;5095522;28;20480;-72
2021/03/21 12:52:13;;;;;;;18.73;4.90;;;12.70;57.10;;;;;;5095518;28;20479;-74
2021/03/21 12:54:41;;;;;;;14.93;4.33;;;12.90;56.60;;;;;;5095405;28;20452;-73
2021/03/21 12:57:10;;;;;;;14.00;4.40;;;12.90;56.10;;;;;;5095367;28;20440;-74
2021/03/21 12:59:38;;;;;;;14.70;4.47;;;13.00;55.50;;;;;;5095350;28;20428;-73
2021/03/21 13:02:05;;;;;;;16.10;4.03;;;13.10;56.20;;;;;;5095163;28;20517;-73
2021/03/21 13:04:31;;;;;;;17.83;4.90;;;13.10;54.90;;;;;;5095235;28;20447;-74
2021/03/21 13:06:57;;;;;;;18.47;4.13;;;13.20;54.80;;;;;;5095113;28;20826;-74
2021/03/21 13:09:23;;;;;;;14.60;3.87;;;13.30;55.00;;;;;;5095066;28;20603;-72
2021/03/21 13:11:50;;;;;;;20.70;5.43;;;13.20;54.60;;;;;;5094893;28;20460;-73
2021/03/21 13:14:16;;;;;;;18.17;4.13;;;13.20;54.70;;;;;;5095036;28;20431;-74
2021/03/21 13:16:43;;;;;;;18.67;4.03;;;13.20;54.40;;;;;;5094975;28;20474;-72
2021/03/21 13:19:10;;;;;;;19.13;4.70;;;13.20;54.90;;;;;;5094686;28;20811;-73
2021/03/21 13:21:36;;;;;;;20.53;4.03;;;13.10;54.50;;;;;;5094965;28;20474;-72
2021/03/21 13:24:03;;;;;;;19.00;3.97;;;13.10;55.10;;;;;;5094814;28;20463;-71
2021/03/21 13:26:29;;;;;;;15.90;4.43;;;12.90;55.10;;;;;;5094725;28;20444;-71
2021/03/21 13:28:55;;;;;;;15.23;4.50;;;12.80;55.90;;;;;;5094632;28;20482;-71